Hauptseite
METAR-TAF:

METAR-TAF

Flughäfen :

Singapur, Singapur

Flughafen Singapur

Breite: 01-22N, Länge: 103-59E, Höhe: 5 m

Beobachtung

Neuester Wetterbericht von vor 19 Minuten, um 17:00 UTC
Wind 4 kt aus Nord, variierte zwischen West/Nordwest und Ost/Nordost
Temperatur 25°C
Luftfeuchtigkeit 89%
Luftdruck 1010 hPa
Sichtweite 10 km oder mehr
Leicht bewölkt in der Höhe von 1800 ft
Aufgelockert bewölkt in der Höhe von 16000 ft
Durchbrochene Bewölkung in der Höhe von 30000 ft

METAR: WSSS 161700Z 01004KT 300V060 9999 FEW018 SCT160 BKN300 25/23 Q1010 NOSIG

Zeit: 01:19 (17:19 UTC)

Prognose

Neuester Wetterbericht von vor 6 Stunden und 19 Minuten, um 11:00 UTC
Gültige Prognose vom 16 um 12 UTC bis 17 um 18 UTC
Wind 8 kt aus Nord
Sichtweite 10 km oder mehr
Leicht bewölkt in der Höhe von 1500 ft
Durchbrochene Bewölkung in der Höhe von 14000 ft

TAF: WSSS 161100Z 1612/1718 36008KT 9999 FEW015 BKN140

Wetterbeobachtungen und Prognosen von mehr als 4000 Flughäfen (METAR und TAF Bericht).

Die verfügbaren Stationen werden durch gelbe und rote Markierungen auf der Karte dargestellt.

Führen Sie die Maus auf sie, um den Namen der Station zu sehen.

Darauf klicken, um die Beobachtung von Wetterbeobachtungen und Prognosen zu sehen.

Um die Karte zu ändern : klicken Sie auf den grünen Tasten mit einem schwarzen Kreuz Zum Vergrößern, auf den grünen Button mit einem Gedankenstrich zu verkleinern, oder auf die grünen Pfeile für benachbarte Karten.


METAR-TAF: